NZOH/OHA METAR and TAF weather

Enter ICAO airport designator
Station Type Date Time Source
NZOH METAR 2020/01/21 16:35 UTC NOAA

NZOH 211635Z 30004KT 8000 SCT007 BKN012 16/15 Q1016 BECMG 25KM BKN018


Station Type Date Time Source
NZOH Decoded METAR 2020/01/21 16:35 UTC NOAA

Ohakea, New Zealand (NZOH) 40-12S 175-22E 52M
Jan 21, 2020 - 11:35 AM EST / 2020.01.21 1635 UTC
Wind: from the WNW (300 degrees) at 5 MPH (4 KT):0
Visibility: 4 mile(s):0
Sky conditions: mostly cloudy
Temperature: 60 F (16 C)
Dew Point: 59 F (15 C)
Relative Humidity: 93%
Pressure (altimeter): 30.00 in. Hg (1016 hPa)
ob: NZOH 211635Z 30004KT 8000 SCT007 BKN012 16/15 Q1016 BECMG 25KM BKN018
cycle: 16

Station Type Date Time Source
NZOH TAF 2007/12/14 04:59 UTC NOAA

TAF NZOH 140459Z 140606 11020KT 30KM SCT080 BECMH 0911 03008KT
BECMG 2224 27012KT

Example: see airport list